Aviation Digital Data Service (ADDS)

Output produced by METARs form (0133 UTC 23 November 2017)
found at http://www.aviationweather.gov/adds/metars/
 
NSFA 230100Z 00000KT 9999 VCSH FEW018CB SCT018 BKN050 30/24 Q10 08 RMK CB TO NW
NSFA 222300Z 19006KT 9999 VCSH SCT023 BKN290 28/22 Q1009
NSFA 222200Z 21005KT 9999 VCSH SCT022 BKN280 28/23 Q1010 NOSIG
NSFA 222100Z 21006KT 9999 VCSH FEW019CB BKN020 25/22 Q1010 RMK CB TO SW
NSFA 222000Z 25003KT 9999 SCT023 BKN280 27/23 Q1011 NOSIG
NSFA 221900Z 25003KT 9999 FEW022 SCT040 BKN280 27/23 Q1010 NOSI G
NSFA 221700Z 19002KT 9999 SCT023 25/23 Q1009 NOSIG
NSFA 221600Z 21004KT 9999 FEW0226 25/23 Q1009 NOSOG
NSFA 221500Z 22005KT 9999 FEW028 25/24 Q1008 NOSIG
NSFA 221400Z 21005KT 9999 FEW026 26/24 Q1008 NOSIG
NSFA 221300Z 21004KT 9999 FEW026 25/24 Q1008 NOSIG
NSFA 221100Z 21004KT 9999 FEW024 26/24 Q1010
NSFA 221000Z 22004KT 9999 FEW025 25/24 Q1010
NSFA 220900Z 00000KT 9999 SCT023 26/23 Q1010
NSFA 220800Z VRB03KT 9999 SCT024 27/23 Q1010
NSFA 220700Z 00000KT 9999 SCT024 SCT280 27/24 Q1009
NSFA 220600Z 00000KT 9999 FEW022 SCT044 BKN280 27/24 Q1008
NSFA 220500Z 04004KT 9999 SCT023 28/24 Q1008
NSFA 220400Z 04003KT 9999 FEW020CB SCT024 29/24 Q1007 RMK CB TO NW
NSFA 220300Z 02004KT 9999 FEW024 SCT150 30/24 Q1007
NSFA 220200Z 04004KT 9999 FEW024 SCT150 30/24 Q1007